Time;durP1;ratioP1;P1;durP2;ratioP2;P2;SDS_P1;SDS_P2;PMS_P1;PMS_P2;Temp;Humidity;BMP_temperature;BMP_pressure;BME280_temperature;BME280_humidity;BME280_pressure;Samples;Min_cycle;Max_cycle;Signal;HPM_P1;HPM_P2
2022/03/08 00:00:42;;;;;;;1.83;0.82;;;8.00;62.20;;;;;;20806035;28;20034;-80
2022/03/08 00:10:43;;;;;;;2.00;0.90;;;8.00;62.20;;;;;;20804441;28;20037;-80
2022/03/08 00:20:44;;;;;;;2.38;0.70;;;8.00;62.20;;;;;;20804562;28;20116;-80
2022/03/08 00:30:44;;;;;;;1.42;0.70;;;8.00;62.10;;;;;;20803523;28;20048;-80
2022/03/08 00:40:45;;;;;;;1.77;1.00;;;8.00;62.10;;;;;;20786785;28;20535;-80
2022/03/08 00:50:45;;;;;;;2.20;0.88;;;8.00;62.10;;;;;;20801549;28;20120;-80
2022/03/08 01:00:47;;;;;;;1.45;0.90;;;8.00;62.00;;;;;;20800528;28;20064;-81
2022/03/08 01:10:47;;;;;;;3.67;0.85;;;8.00;62.00;;;;;;20783930;28;20047;-80
2022/03/08 01:20:48;;;;;;;1.92;1.13;;;8.00;62.00;;;;;;20783438;28;20033;-80
2022/03/08 01:30:49;;;;;;;1.45;0.90;;;8.00;61.90;;;;;;20859301;28;20032;-80
2022/03/08 01:40:51;;;;;;;1.58;0.95;;;8.00;62.60;;;;;;20865298;28;20045;-79
2022/03/08 01:50:51;;;;;;;1.83;0.95;;;8.00;61.90;;;;;;20878884;28;20185;-79
2022/03/08 02:00:52;;;;;;;2.20;0.90;;;7.90;61.80;;;;;;20846414;28;20032;-78
2022/03/08 02:10:53;;;;;;;2.70;0.85;;;7.90;61.80;;;;;;20878667;28;20659;-81
2022/03/08 02:20:53;;;;;;;1.27;0.80;;;7.90;61.80;;;;;;20845813;28;20097;-80
2022/03/08 02:30:54;;;;;;;1.40;1.00;;;7.90;61.80;;;;;;20877347;28;20072;-80
2022/03/08 02:40:54;;;;;;;1.98;1.13;;;7.90;61.70;;;;;;20861098;28;20040;-79
2022/03/08 02:50:55;;;;;;;2.08;1.10;;;7.90;61.70;;;;;;20875391;28;20037;-80
2022/03/08 03:00:56;;;;;;;2.53;1.13;;;7.90;61.70;;;;;;20865864;28;20453;-80
2022/03/08 03:10:57;;;;;;;1.55;1.00;;;7.80;61.60;;;;;;20874947;28;20152;-80
2022/03/08 03:20:58;;;;;;;1.63;0.93;;;7.80;61.60;;;;;;20874518;28;20094;-80
2022/03/08 03:30:58;;;;;;;1.80;1.00;;;7.90;61.50;;;;;;20889258;28;20378;-79
2022/03/08 03:40:59;;;;;;;2.08;0.98;;;7.80;61.40;;;;;;20872654;28;20091;-80
2022/03/08 03:51:00;;;;;;;1.60;1.08;;;7.90;61.50;;;;;;20898950;28;20077;-80
2022/03/08 04:01:01;;;;;;;4.72;1.17;;;7.80;61.40;;;;;;20885842;28;20057;-79
2022/03/08 04:11:02;;;;;;;1.37;0.90;;;7.80;61.30;;;;;;20853799;28;20554;-80
2022/03/08 04:21:03;;;;;;;2.20;1.10;;;7.80;62.00;;;;;;20869764;28;20287;-79
2022/03/08 04:31:03;;;;;;;1.73;0.90;;;7.80;61.30;;;;;;20851388;28;20045;-79
2022/03/08 04:41:05;;;;;;;2.50;1.15;;;7.80;61.30;;;;;;20849753;28;20048;-73
2022/03/08 04:51:06;;;;;;;2.58;1.02;;;7.80;61.30;;;;;;20896826;28;20437;-74
2022/03/08 05:01:07;;;;;;;2.58;0.98;;;7.70;61.20;;;;;;20896558;28;20056;-72
2022/03/08 05:11:07;;;;;;;1.58;0.93;;;7.70;61.20;;;;;;20861747;28;20029;-75
2022/03/08 05:21:08;;;;;;;2.35;0.95;;;7.80;61.10;;;;;;20813494;28;20116;-77
2022/03/08 05:31:10;;;;;;;1.48;1.00;;;8.00;60.80;;;;;;20795596;28;20045;-71
2022/03/08 05:41:10;;;;;;;1.10;0.80;;;8.30;60.10;;;;;;20828753;28;20041;-72
2022/03/08 05:51:11;;;;;;;2.80;1.27;;;8.70;59.20;;;;;;20864851;28;20048;-73
2022/03/08 06:01:11;;;;;;;2.70;1.00;;;9.00;58.20;;;;;;20862986;28;20033;-74
2022/03/08 06:11:12;;;;;;;1.50;0.80;;;9.30;57.40;;;;;;20856218;28;20041;-75
2022/03/08 06:21:13;;;;;;;1.92;0.95;;;9.30;56.70;;;;;;20885723;28;20057;-72
2022/03/08 06:31:14;;;;;;;3.63;1.42;;;9.30;56.50;;;;;;20884204;28;20396;-75
2022/03/08 06:41:14;;;;;;;4.68;1.52;;;9.20;56.60;;;;;;20886359;28;20318;-74
2022/03/08 06:51:15;;;;;;;1.87;0.90;;;8.90;57.00;;;;;;20887666;28;20090;-74
2022/03/08 07:01:15;;;;;;;4.37;1.30;;;8.60;57.40;;;;;;20903601;28;20288;-74
2022/03/08 07:11:16;;;;;;;2.78;1.08;;;8.50;57.90;;;;;;20902400;28;20354;-74
2022/03/08 07:21:17;;;;;;;1.67;0.90;;;8.30;58.30;;;;;;20869670;28;20124;-76
2022/03/08 07:31:17;;;;;;;1.77;0.93;;;8.20;58.70;;;;;;20862550;28;20037;-75
2022/03/08 07:41:18;;;;;;;3.50;1.27;;;8.10;59.00;;;;;;20894428;28;20322;-73
2022/03/08 07:51:19;;;;;;;2.25;1.20;;;8.10;59.30;;;;;;20912611;28;20400;-73
2022/03/08 08:01:19;;;;;;;3.78;1.02;;;8.00;59.50;;;;;;20874248;28;20033;-74
2022/03/08 08:11:20;;;;;;;2.75;1.20;;;8.00;59.80;;;;;;20898221;28;20298;-74
2022/03/08 08:21:21;;;;;;;1.40;0.70;;;8.00;60.00;;;;;;20796406;28;20037;-74
2022/03/08 08:31:23;;;;;;;1.60;1.02;;;8.00;60.10;;;;;;20850877;28;20389;-75
2022/03/08 08:41:23;;;;;;;1.42;0.88;;;7.90;60.20;;;;;;20893923;28;20059;-75
2022/03/08 08:51:24;;;;;;;7.97;1.75;;;8.00;60.50;;;;;;20847897;28;20041;-77
2022/03/08 09:01:25;;;;;;;5.20;1.60;;;8.00;60.60;;;;;;20858004;28;20037;-75
2022/03/08 09:11:27;;;;;;;3.10;0.97;;;8.00;60.60;;;;;;20858967;28;20083;-75
2022/03/08 09:21:28;;;;;;;2.20;0.93;;;8.10;60.80;;;;;;20872839;28;20281;-75
2022/03/08 09:31:29;;;;;;;3.00;1.10;;;8.10;60.90;;;;;;20863703;28;20040;-75
2022/03/08 09:41:29;;;;;;;2.17;0.70;;;8.00;60.90;;;;;;20871050;28;20273;-76
2022/03/08 09:51:30;;;;;;;1.65;0.88;;;8.10;61.00;;;;;;20871196;28;20116;-76
2022/03/08 10:01:30;;;;;;;1.55;0.75;;;8.10;61.10;;;;;;20888268;28;20029;-75
2022/03/08 10:11:31;;;;;;;1.80;0.85;;;8.10;61.20;;;;;;20854678;28;20033;-75
2022/03/08 10:21:33;;;;;;;1.15;0.55;;;8.10;61.40;;;;;;20854675;28;20112;-74
2022/03/08 10:31:34;;;;;;;1.52;0.63;;;8.10;61.30;;;;;;20853932;28;20037;-75
2022/03/08 10:41:45;;;;;;;3.45;0.70;;;8.10;61.30;;;;;;20870325;28;20395;-75
2022/03/08 10:51:46;;;;;;;0.95;0.60;;;8.10;61.50;;;;;;20858857;28;20044;-75
2022/03/08 11:01:47;;;;;;;2.20;0.55;;;8.10;61.50;;;;;;20871185;28;20393;-74
2022/03/08 11:11:48;;;;;;;15.23;1.77;;;8.10;61.50;;;;;;20860466;28;20040;-74
2022/03/08 11:21:48;;;;;;;3.20;0.80;;;8.10;61.50;;;;;;20854824;28;20045;-75
2022/03/08 11:31:49;;;;;;;5.17;0.60;;;8.10;61.60;;;;;;21220429;22;20049;-73
2022/03/08 11:41:54;;;;;;;1.20;0.77;;;8.10;61.90;;;;;;20901401;28;20271;-74
2022/03/08 11:52:19;;;;;;;1.20;0.40;;;8.20;61.90;;;;;;20902232;28;20039;-74
2022/03/08 12:02:20;;;;;;;2.85;0.50;;;8.20;62.00;;;;;;20901155;28;20044;-79
2022/03/08 12:12:21;;;;;;;1.65;0.47;;;8.10;62.10;;;;;;20916707;28;20055;-79
2022/03/08 12:22:22;;;;;;;1.35;0.40;;;8.10;62.20;;;;;;20900013;28;20045;-77
2022/03/08 12:32:32;;;;;;;0.55;0.32;;;8.10;62.20;;;;;;20864373;28;20037;-77
2022/03/08 12:42:41;;;;;;;1.55;0.40;;;8.20;62.30;;;;;;20881132;28;20114;-77
2022/03/08 12:52:45;;;;;;;3.42;0.47;;;8.20;62.40;;;;;;20862941;28;20163;-79
2022/03/08 13:02:46;;;;;;;2.85;0.68;;;8.20;62.40;;;;;;20881238;28;20033;-79
2022/03/08 13:12:52;;;;;;;1.10;0.63;;;8.30;62.40;;;;;;20881338;28;20064;-79
2022/03/08 13:22:53;;;;;;;1.38;0.40;;;8.30;62.40;;;;;;20863113;28;20044;-77
2022/03/08 13:33:13;;;;;;;0.63;0.25;;;8.40;62.30;;;;;;20868100;28;20156;-73
2022/03/08 13:43:15;;;;;;;0.70;0.40;;;8.40;62.40;;;;;;20893925;28;20045;-75
2022/03/08 13:53:16;;;;;;;1.48;0.35;;;8.40;62.40;;;;;;20893553;28;20033;-75
2022/03/08 14:03:18;;;;;;;1.35;0.20;;;8.40;62.40;;;;;;20888275;28;20834;-76
2022/03/08 14:13:19;;;;;;;1.10;0.63;;;8.40;62.50;;;;;;20874639;28;20400;-73
2022/03/08 14:23:20;;;;;;;0.60;0.30;;;8.50;62.50;;;;;;20889026;28;20124;-73
2022/03/08 14:33:21;;;;;;;0.47;0.30;;;8.50;62.50;;;;;;20872889;28;20065;-74
2022/03/08 14:43:21;;;;;;;0.73;0.22;;;8.50;62.40;;;;;;20888361;28;20120;-74
2022/03/08 14:53:23;;;;;;;1.77;0.30;;;8.60;62.50;;;;;;20888538;28;20036;-73
2022/03/08 15:03:24;;;;;;;1.00;0.35;;;8.60;62.40;;;;;;20887618;28;20368;-73
2022/03/08 15:13:26;;;;;;;0.30;0.30;;;8.70;62.40;;;;;;20898267;28;20032;-74
2022/03/08 15:23:28;;;;;;;0.30;0.20;;;8.80;62.20;;;;;;20887953;28;20431;-83
2022/03/08 15:33:28;;;;;;;0.77;0.40;;;8.90;62.70;;;;;;20888225;28;20045;-74
2022/03/08 15:43:29;;;;;;;0.20;0.10;;;8.80;62.00;;;;;;20882756;28;20140;-73
2022/03/08 15:53:30;;;;;;;0.77;0.30;;;8.90;62.10;;;;;;20880622;28;20044;-72
2022/03/08 16:03:30;;;;;;;1.95;0.17;;;8.90;62.10;;;;;;20862116;28;20349;-73
2022/03/08 16:13:31;;;;;;;0.47;0.30;;;8.90;62.10;;;;;;20864996;28;20116;-72
2022/03/08 16:23:32;;;;;;;1.60;0.20;;;8.90;62.00;;;;;;20871395;28;20036;-73
2022/03/08 16:33:32;;;;;;;0.50;0.28;;;8.90;62.10;;;;;;20880003;28;20041;-72
2022/03/08 16:43:33;;;;;;;0.93;0.40;;;8.90;62.30;;;;;;20884390;28;20036;-71
2022/03/08 16:53:34;;;;;;;3.53;0.43;;;8.90;62.30;;;;;;20872518;28;20033;-72
2022/03/08 17:03:35;;;;;;;0.20;0.20;;;8.90;62.50;;;;;;20862398;28;20309;-73
2022/03/08 17:13:35;;;;;;;0.10;0.10;;;8.80;62.70;;;;;;20860876;28;20033;-72
2022/03/08 17:23:36;;;;;;;1.05;0.38;;;8.70;62.90;;;;;;20859325;28;20033;-71
2022/03/08 17:33:39;;;;;;;1.20;0.30;;;8.70;63.10;;;;;;20864581;28;20083;-80
2022/03/08 17:43:39;;;;;;;0.65;0.30;;;8.60;63.10;;;;;;20861589;28;20033;-87
2022/03/08 17:53:40;;;;;;;0.20;0.20;;;8.60;63.10;;;;;;20846111;28;20033;-81
2022/03/08 18:03:43;;;;;;;0.25;0.15;;;8.60;63.20;;;;;;20884089;28;20065;-78
2022/03/08 18:13:44;;;;;;;2.33;0.30;;;8.50;63.20;;;;;;20865634;28;20070;-78
2022/03/08 18:23:44;;;;;;;0.28;0.13;;;8.50;63.30;;;;;;20861111;28;20358;-80
2022/03/08 18:33:45;;;;;;;0.80;0.30;;;8.40;63.30;;;;;;20887071;28;20068;-78
2022/03/08 18:43:46;;;;;;;2.90;0.40;;;8.30;63.30;;;;;;20875386;28;20118;-77
2022/03/08 18:53:49;;;;;;;0.90;0.50;;;8.40;63.40;;;;;;20892209;28;20068;-77
2022/03/08 19:03:56;;;;;;;0.68;0.40;;;8.40;63.40;;;;;;20890757;28;20033;-78
2022/03/08 19:13:56;;;;;;;0.50;0.27;;;8.30;63.30;;;;;;20890529;28;20036;-76
2022/03/08 19:23:57;;;;;;;0.52;0.30;;;8.30;63.40;;;;;;20871399;28;20118;-77
2022/03/08 19:33:58;;;;;;;0.30;0.20;;;8.30;63.40;;;;;;20903440;28;20469;-76
2022/03/08 19:43:58;;;;;;;1.15;0.30;;;8.30;63.30;;;;;;20884046;28;20040;-76
2022/03/08 19:54:01;;;;;;;0.38;0.30;;;8.20;63.30;;;;;;20899737;28;20116;-76
2022/03/08 20:04:01;;;;;;;0.70;0.40;;;8.30;63.30;;;;;;20903340;28;20025;-76
2022/03/08 20:14:04;;;;;;;1.25;0.28;;;8.20;63.30;;;;;;20941339;28;20385;-76
2022/03/08 20:24:05;;;;;;;0.57;0.30;;;8.20;63.30;;;;;;20896516;28;20032;-75
2022/03/08 20:34:05;;;;;;;2.50;0.47;;;8.20;63.30;;;;;;20897387;28;20048;-76
2022/03/08 20:44:06;;;;;;;1.33;0.38;;;8.20;63.30;;;;;;20918262;28;20036;-75
2022/03/08 20:54:08;;;;;;;1.33;0.30;;;8.20;63.20;;;;;;20920151;28;20029;-76
2022/03/08 21:04:08;;;;;;;2.90;0.43;;;8.20;63.20;;;;;;20919651;28;20485;-76
2022/03/08 21:14:09;;;;;;;1.77;0.80;;;8.20;63.20;;;;;;20913353;28;20037;-76
2022/03/08 21:24:10;;;;;;;1.37;0.70;;;8.20;63.20;;;;;;20823587;28;20386;-76
2022/03/08 21:34:10;;;;;;;0.90;0.63;;;8.20;63.10;;;;;;20864379;28;20294;-76
2022/03/08 21:44:11;;;;;;;1.83;0.70;;;8.20;63.10;;;;;;20975711;28;20453;-76
2022/03/08 21:54:11;;;;;;;3.10;0.60;;;8.20;63.10;;;;;;20958791;28;20348;-76
2022/03/08 22:04:12;;;;;;;1.30;0.63;;;8.20;63.00;;;;;;20958446;28;20286;-76
2022/03/08 22:14:13;;;;;;;3.65;0.90;;;8.10;62.90;;;;;;20975976;28;20282;-76
2022/03/08 22:24:13;;;;;;;1.07;0.60;;;8.10;62.90;;;;;;20956662;28;20392;-76
2022/03/08 22:34:14;;;;;;;1.23;0.60;;;8.10;62.90;;;;;;20973246;28;20298;-76
2022/03/08 22:44:14;;;;;;;2.10;0.90;;;8.10;62.80;;;;;;20972709;28;20062;-76
2022/03/08 22:54:21;;;;;;;2.97;1.00;;;8.10;62.90;;;;;;20956408;28;20037;-75
2022/03/08 23:04:22;;;;;;;1.27;0.70;;;8.10;62.80;;;;;;20956427;28;20047;-76
2022/03/08 23:14:22;;;;;;;2.42;1.15;;;8.10;62.70;;;;;;20954991;28;20396;-76
2022/03/08 23:24:23;;;;;;;1.63;0.80;;;8.10;62.70;;;;;;20985727;28;20033;-76
2022/03/08 23:34:24;;;;;;;1.73;0.90;;;8.10;62.70;;;;;;20986610;28;20036;-76
2022/03/08 23:44:24;;;;;;;2.38;0.93;;;8.10;62.70;;;;;;20969365;28;20040;-75
2022/03/08 23:54:25;;;;;;;2.03;1.00;;;8.10;62.70;;;;;;20967890;28;20128;-76
